createdAt,value
2024-03-28T21:18:20.127Z,14.12
2024-03-28T21:20:12.177Z,14.25
2024-03-28T21:22:04.370Z,14.28
2024-03-28T21:23:56.212Z,14.27
2024-03-28T21:25:47.549Z,14.26
2024-03-28T21:27:38.990Z,14.28
2024-03-28T21:29:30.467Z,14.28
2024-03-28T21:31:21.704Z,14.22
2024-03-28T21:33:13.048Z,14.20
2024-03-28T21:35:07.139Z,14.20
2024-03-28T21:36:58.671Z,14.18
2024-03-28T21:38:50.841Z,14.11
2024-03-28T21:40:42.234Z,14.06
2024-03-28T21:42:33.592Z,14.05
2024-03-28T21:44:26.055Z,14.04
2024-03-28T21:46:17.210Z,14.04
2024-03-28T21:48:08.152Z,13.99
2024-03-28T21:49:59.482Z,13.97
2024-03-28T21:51:50.815Z,13.91
2024-03-28T21:53:43.039Z,13.92
2024-03-28T21:55:34.372Z,13.89
2024-03-28T21:57:26.381Z,13.87
2024-03-28T21:59:17.345Z,13.83
2024-03-28T22:01:09.636Z,13.78
2024-03-28T22:03:00.782Z,13.72
2024-03-28T22:04:52.727Z,13.72
2024-03-28T22:06:44.319Z,13.69
2024-03-28T22:08:40.344Z,13.66
2024-03-28T22:10:31.935Z,13.62
2024-03-28T22:12:23.385Z,13.59
2024-03-28T22:14:15.599Z,13.56
2024-03-28T22:16:07.370Z,13.55
2024-03-28T22:17:58.674Z,13.55
2024-03-28T22:19:50.030Z,13.49
2024-03-28T22:21:41.212Z,13.44
2024-03-28T22:23:32.653Z,13.40
2024-03-28T22:25:24.986Z,13.38
2024-03-28T22:27:16.250Z,13.36
2024-03-28T22:29:07.729Z,13.29
2024-03-28T22:30:59.108Z,13.25
2024-03-28T22:32:50.627Z,13.24
2024-03-28T22:34:45.937Z,13.18
2024-03-28T22:36:37.447Z,13.15
2024-03-28T22:38:28.925Z,13.12
2024-03-28T22:40:20.317Z,13.11
2024-03-28T22:42:11.588Z,13.07
2024-03-28T22:44:02.959Z,13.00
2024-03-28T22:46:00.217Z,12.97
2024-03-28T22:47:52.161Z,12.93
2024-03-28T22:49:45.060Z,12.91
2024-03-28T22:51:36.259Z,12.86
2024-03-28T22:53:27.176Z,12.83
2024-03-28T22:55:18.324Z,12.82
2024-03-28T22:57:09.106Z,12.78
2024-03-28T22:59:00.587Z,12.75
2024-03-28T23:00:57.564Z,12.73
2024-03-28T23:02:49.176Z,12.69
2024-03-28T23:04:40.830Z,12.64
2024-03-28T23:06:31.928Z,12.59
2024-03-28T23:08:23.217Z,12.56
2024-03-28T23:10:14.646Z,12.57
2024-03-28T23:12:06.058Z,12.54
2024-03-28T23:13:57.474Z,12.52
2024-03-28T23:15:48.846Z,12.50
2024-03-28T23:17:40.018Z,12.46
2024-03-28T23:19:31.303Z,12.42
2024-03-28T23:21:23.090Z,12.37
